Time;durP1;ratioP1;P1;durP2;ratioP2;P2;SDS_P1;SDS_P2;PMS_P1;PMS_P2;Temp;Humidity;BMP_temperature;BMP_pressure;BME280_temperature;BME280_humidity;BME280_pressure;Samples;Min_cycle;Max_cycle;Signal;HPM_P1;HPM_P2
2023/02/23 00:01:38;;;;;;;0.68;0.68;;;;;;;;;;5006427;28;20233;-83
2023/02/23 00:04:06;;;;;;;0.47;0.47;;;;;;;;;;5007185;28;20657;-82
2023/02/23 00:06:35;;;;;;;0.85;0.85;;;;;;;;;;5014356;28;20227;-81
2023/02/23 00:09:12;;;;;;;0.40;0.40;;;;;;;;;;5023358;28;20232;-81
2023/02/23 00:12:06;;;;;;;0.10;0.10;;;;;;;;;;5033229;28;20327;-80
2023/02/23 00:14:36;;;;;;;1.20;1.17;;;;;;;;;;5027104;28;20255;-82
2023/02/23 00:17:03;;;;;;;2.38;2.28;;;;;;;;;;5027932;28;20236;-82
2023/02/23 00:19:32;;;;;;;1.83;1.73;;;;;;;;;;5025738;28;20330;-83
2023/02/23 00:21:59;;;;;;;0.47;0.47;;;;;;;;;;5028077;28;20259;-83
2023/02/23 00:24:28;;;;;;;0.65;0.65;;;;;;;;;;5025119;28;20251;-82
2023/02/23 00:26:56;;;;;;;0.10;0.10;;;;;;;;;;5021426;28;20318;-83
2023/02/23 00:29:25;;;;;;;0.38;0.38;;;;;;;;;;5007411;28;20229;-83
2023/02/23 00:31:54;;;;;;;0.30;0.30;;;;;;;;;;5006689;28;20237;-83
2023/02/23 00:34:22;;;;;;;0.40;0.40;;;;;;;;;;5007197;28;20255;-82
2023/02/23 00:36:52;;;;;;;0.50;0.50;;;;;;;;;;5006047;28;20553;-82
2023/02/23 00:39:27;;;;;;;0.20;0.20;;;;;;;;;;5007003;28;20287;-83
2023/02/23 00:41:55;;;;;;;0.25;0.25;;;;;;;;;;5006339;28;20620;-82
2023/02/23 00:44:25;;;;;;;0.40;0.40;;;;;;;;;;5007196;28;20225;-82
2023/02/23 00:46:56;;;;;;;0.10;0.10;;;;;;;;;;5007078;28;20228;-82
2023/02/23 00:49:23;;;;;;;1.05;1.05;;;;;;;;;;5006592;28;20224;-84
2023/02/23 00:51:52;;;;;;;0.63;0.63;;;;;;;;;;5006652;28;20224;-83
2023/02/23 00:54:20;;;;;;;0.13;0.13;;;;;;;;;;5009072;28;20237;-82
2023/02/23 00:56:48;;;;;;;0.73;0.73;;;;;;;;;;5026368;28;20235;-83
2023/02/23 00:59:16;;;;;;;0.43;0.43;;;;;;;;;;5031439;28;20234;-81
2023/02/23 01:01:45;;;;;;;1.65;1.55;;;;;;;;;;5029160;28;20224;-82
2023/02/23 01:04:13;;;;;;;1.88;1.77;;;;;;;;;;5031846;28;20219;-81
2023/02/23 01:06:41;;;;;;;0.43;0.43;;;;;;;;;;5030347;28;20251;-83
2023/02/23 01:09:12;;;;;;;0.45;0.45;;;;;;;;;;5029445;28;20229;-82
2023/02/23 01:11:40;;;;;;;1.02;1.02;;;;;;;;;;5032029;28;20243;-82
2023/02/23 01:14:08;;;;;;;0.17;0.17;;;;;;;;;;5030551;28;20262;-83
2023/02/23 01:16:37;;;;;;;0.47;0.47;;;;;;;;;;5031845;28;20229;-81
2023/02/23 01:19:07;;;;;;;0.63;0.63;;;;;;;;;;5032211;28;20251;-83
2023/02/23 01:21:36;;;;;;;0.73;0.73;;;;;;;;;;5030406;28;20232;-83
2023/02/23 01:24:04;;;;;;;0.55;0.55;;;;;;;;;;5017149;28;20220;-82
2023/02/23 01:26:36;;;;;;;0.50;0.50;;;;;;;;;;5007665;28;20661;-82
2023/02/23 01:29:07;;;;;;;0.32;0.32;;;;;;;;;;5007894;28;20229;-81
2023/02/23 01:31:39;;;;;;;0.20;0.20;;;;;;;;;;5006900;28;20239;-81
2023/02/23 01:34:09;;;;;;;0.22;0.22;;;;;;;;;;5010154;28;20245;-83
2023/02/23 01:36:37;;;;;;;1.00;1.00;;;;;;;;;;5008930;28;20493;-80
2023/02/23 01:39:07;;;;;;;0.20;0.20;;;;;;;;;;5006436;28;20628;-81
2023/02/23 01:41:41;;;;;;;0.20;0.20;;;;;;;;;;5007880;28;20253;-82
2023/02/23 01:44:09;;;;;;;0.70;0.70;;;;;;;;;;5007226;28;20220;-80
2023/02/23 01:46:41;;;;;;;0.75;0.75;;;;;;;;;;5008744;28;20221;-82
2023/02/23 01:49:15;;;;;;;0.15;0.15;;;;;;;;;;5007057;28;20240;-82
2023/02/23 01:51:43;;;;;;;1.05;1.05;;;;;;;;;;5010134;28;20265;-82
2023/02/23 01:54:16;;;;;;;0.45;0.45;;;;;;;;;;5008555;28;20317;-83
2023/02/23 01:56:48;;;;;;;2.35;2.25;;;;;;;;;;5005668;28;20692;-82
2023/02/23 01:59:15;;;;;;;0.57;0.57;;;;;;;;;;5009305;28;20233;-83
2023/02/23 02:01:44;;;;;;;0.70;0.70;;;;;;;;;;5006168;28;20595;-82
2023/02/23 02:04:15;;;;;;;0.35;0.35;;;;;;;;;;5006412;28;20228;-81
2023/02/23 02:06:43;;;;;;;0.75;0.75;;;;;;;;;;5006525;28;20235;-81
2023/02/23 02:09:16;;;;;;;0.22;0.22;;;;;;;;;;5002809;28;20224;-82
2023/02/23 02:11:45;;;;;;;0.52;0.52;;;;;;;;;;5005220;28;20224;-82
2023/02/23 02:14:14;;;;;;;0.25;0.25;;;;;;;;;;5003899;28;20304;-82
2023/02/23 02:17:01;;;;;;;0.63;0.63;;;;;;;;;;5006803;28;20298;-81
2023/02/23 02:19:43;;;;;;;0.45;0.45;;;;;;;;;;5006400;28;20220;-83
2023/02/23 02:22:24;;;;;;;0.50;0.50;;;;;;;;;;5003069;28;20290;-82
2023/02/23 02:25:22;;;;;;;1.75;1.67;;;;;;;;;;5006410;28;20250;-83
2023/02/23 02:28:09;;;;;;;0.90;0.90;;;;;;;;;;5006704;28;20230;-82
2023/02/23 02:30:59;;;;;;;1.45;1.42;;;;;;;;;;5005643;28;20224;-83
2023/02/23 02:33:57;;;;;;;0.30;0.30;;;;;;;;;;5001242;28;20279;-82
2023/02/23 02:36:43;;;;;;;0.20;0.20;;;;;;;;;;4946542;29;20444;-82
2023/02/23 02:39:22;;;;;;;0.70;0.70;;;;;;;;;;4998875;28;20230;-83
2023/02/23 02:41:53;;;;;;;1.15;1.15;;;;;;;;;;5020661;28;20224;-83
2023/02/23 02:44:23;;;;;;;0.93;0.93;;;;;;;;;;5031210;28;20223;-82
2023/02/23 02:46:54;;;;;;;1.13;1.05;;;;;;;;;;5029827;28;20223;-83
2023/02/23 02:49:27;;;;;;;0.45;0.45;;;;;;;;;;5030734;28;20259;-80
2023/02/23 02:51:56;;;;;;;1.33;1.33;;;;;;;;;;5030752;28;20224;-83
2023/02/23 02:54:27;;;;;;;0.93;0.93;;;;;;;;;;5030370;28;20243;-82
2023/02/23 02:56:59;;;;;;;1.40;1.40;;;;;;;;;;5031087;28;20232;-83
2023/02/23 04:17:43;;;;;;;0.10;0.10;;;;;;;;;;5030661;28;20218;-83
2023/02/23 04:20:11;;;;;;;0.30;0.30;;;;;;;;;;5026953;28;20219;-82
2023/02/23 04:22:39;;;;;;;0.35;0.35;;;;;;;;;;5026616;28;20261;-80
2023/02/23 04:25:07;;;;;;;1.98;1.88;;;;;;;;;;5023523;28;20224;-82
2023/02/23 04:27:35;;;;;;;0.32;0.32;;;;;;;;;;5023522;28;20282;-81
2023/02/23 04:30:03;;;;;;;0.65;0.65;;;;;;;;;;5027315;28;20232;-84
2023/02/23 04:32:33;;;;;;;0.50;0.50;;;;;;;;;;5029446;28;20259;-83
2023/02/23 04:35:02;;;;;;;0.35;0.35;;;;;;;;;;5023430;28;20243;-82
2023/02/23 04:37:30;;;;;;;0.40;0.40;;;;;;;;;;5014244;28;20248;-83
2023/02/23 04:39:57;;;;;;;1.10;1.10;;;;;;;;;;5013214;28;20234;-83
2023/02/23 04:42:25;;;;;;;0.32;0.32;;;;;;;;;;5012064;28;20263;-83
2023/02/23 04:44:53;;;;;;;0.20;0.20;;;;;;;;;;5012655;28;20221;-82
2023/02/23 04:47:21;;;;;;;0.25;0.25;;;;;;;;;;5014069;28;20251;-83
2023/02/23 04:49:48;;;;;;;0.20;0.20;;;;;;;;;;5012053;28;20252;-83
2023/02/23 04:52:17;;;;;;;0.03;0.03;;;;;;;;;;5012925;28;20228;-81
2023/02/23 04:54:45;;;;;;;0.68;0.68;;;;;;;;;;5012373;28;20243;-82
2023/02/23 04:57:13;;;;;;;0.00;0.00;;;;;;;;;;5011809;28;20217;-82
2023/02/23 04:59:41;;;;;;;0.20;0.20;;;;;;;;;;5011859;28;20245;-80
2023/02/23 05:02:08;;;;;;;0.30;0.30;;;;;;;;;;5024066;28;20638;-79
2023/02/23 05:04:36;;;;;;;0.43;0.43;;;;;;;;;;5030573;28;20224;-80
2023/02/23 05:07:04;;;;;;;0.65;0.65;;;;;;;;;;5032769;28;20220;-80
2023/02/23 05:09:33;;;;;;;0.60;0.60;;;;;;;;;;5030976;28;20294;-83
2023/02/23 05:12:01;;;;;;;0.15;0.15;;;;;;;;;;5027521;28;20229;-81
2023/02/23 05:14:29;;;;;;;0.25;0.25;;;;;;;;;;5031949;28;20240;-82
2023/02/23 05:16:59;;;;;;;0.15;0.15;;;;;;;;;;5032480;28;20208;-82
2023/02/23 05:19:27;;;;;;;0.10;0.10;;;;;;;;;;5031120;28;20230;-82
2023/02/23 05:21:54;;;;;;;0.22;0.22;;;;;;;;;;5030362;28;20223;-83
2023/02/23 05:24:22;;;;;;;0.65;0.65;;;;;;;;;;5029187;28;20215;-83
2023/02/23 05:26:51;;;;;;;0.45;0.45;;;;;;;;;;5030901;28;20237;-81
2023/02/23 05:29:19;;;;;;;0.30;0.30;;;;;;;;;;5030701;28;20223;-81
2023/02/23 05:31:47;;;;;;;0.40;0.40;;;;;;;;;;5018450;28;20226;-81
2023/02/23 05:34:15;;;;;;;0.10;0.10;;;;;;;;;;5010333;28;20229;-81
2023/02/23 05:36:43;;;;;;;0.60;0.60;;;;;;;;;;5010244;28;20254;-82
2023/02/23 05:39:11;;;;;;;0.20;0.20;;;;;;;;;;5012208;28;20228;-82
2023/02/23 05:41:39;;;;;;;0.00;0.00;;;;;;;;;;5010146;28;20224;-82
2023/02/23 05:44:08;;;;;;;1.65;1.55;;;;;;;;;;5009836;28;20228;-84
2023/02/23 05:46:36;;;;;;;0.25;0.25;;;;;;;;;;5007633;28;20239;-82
2023/02/23 05:49:03;;;;;;;0.20;0.20;;;;;;;;;;5012130;28;20232;-83
2023/02/23 05:51:35;;;;;;;0.17;0.17;;;;;;;;;;5009029;28;20225;-81
2023/02/23 05:54:03;;;;;;;0.22;0.22;;;;;;;;;;5009863;28;20226;-81
2023/02/23 05:56:30;;;;;;;0.30;0.30;;;;;;;;;;5009336;28;20525;-83
2023/02/23 05:58:59;;;;;;;1.55;1.45;;;;;;;;;;5008997;28;20230;-82
2023/02/23 06:01:28;;;;;;;0.40;0.40;;;;;;;;;;5007903;28;20224;-79
2023/02/23 06:03:56;;;;;;;0.47;0.47;;;;;;;;;;5009293;28;20224;-83
2023/02/23 06:06:24;;;;;;;0.32;0.32;;;;;;;;;;5007744;28;20248;-80
2023/02/23 06:08:52;;;;;;;0.40;0.40;;;;;;;;;;5003588;28;20565;-81
2023/02/23 06:11:19;;;;;;;0.13;0.13;;;;;;;;;;5009072;28;20263;-82
2023/02/23 06:13:47;;;;;;;0.77;0.77;;;;;;;;;;5005344;28;20224;-81
2023/02/23 06:16:17;;;;;;;1.25;1.25;;;;;;;;;;5008972;28;20409;-81
2023/02/23 06:18:47;;;;;;;0.60;0.60;;;;;;;;;;5004468;28;20326;-81
2023/02/23 06:21:14;;;;;;;0.20;0.20;;;;;;;;;;5005281;28;20310;-81
2023/02/23 06:23:42;;;;;;;0.98;0.98;;;;;;;;;;5005402;28;20224;-81
2023/02/23 06:26:10;;;;;;;0.40;0.40;;;;;;;;;;5003334;28;20220;-82
2023/02/23 06:28:38;;;;;;;2.05;1.95;;;;;;;;;;5005564;28;20279;-82
2023/02/23 06:31:06;;;;;;;0.70;0.70;;;;;;;;;;5011394;28;20284;-82
2023/02/23 06:33:37;;;;;;;0.30;0.30;;;;;;;;;;5025501;28;20243;-82
2023/02/23 06:36:09;;;;;;;1.33;1.30;;;;;;;;;;5025232;28;20551;-79
2023/02/23 06:38:37;;;;;;;1.65;1.58;;;;;;;;;;5025141;28;20237;-80
2023/02/23 06:41:08;;;;;;;1.20;1.20;;;;;;;;;;5026070;28;20243;-81
2023/02/23 06:43:36;;;;;;;1.02;1.02;;;;;;;;;;5023656;28;20225;-80
2023/02/23 06:46:03;;;;;;;0.30;0.30;;;;;;;;;;5025707;28;20219;-82
2023/02/23 06:48:31;;;;;;;2.33;2.22;;;;;;;;;;5024479;28;20224;-81
2023/02/23 06:50:59;;;;;;;0.60;0.60;;;;;;;;;;5023910;28;20752;-82
2023/02/23 06:53:29;;;;;;;1.85;1.77;;;;;;;;;;5022795;28;20228;-81
2023/02/23 06:56:03;;;;;;;0.60;0.60;;;;;;;;;;5024203;28;20342;-79
2023/02/23 06:58:34;;;;;;;0.95;0.95;;;;;;;;;;5003556;28;20230;-82
2023/02/23 07:01:04;;;;;;;2.38;2.28;;;;;;;;;;5005345;28;20672;-79
2023/02/23 07:03:35;;;;;;;0.73;0.73;;;;;;;;;;5005284;28;20220;-82
2023/02/23 07:06:06;;;;;;;0.50;0.50;;;;;;;;;;5015318;28;20216;-82
2023/02/23 07:08:35;;;;;;;0.98;0.98;;;;;;;;;;5027048;28;20236;-82
2023/02/23 07:11:07;;;;;;;0.60;0.60;;;;;;;;;;5023208;28;20254;-81
2023/02/23 07:13:35;;;;;;;0.40;0.40;;;;;;;;;;5025894;28;20342;-82
2023/02/23 07:16:02;;;;;;;0.27;0.27;;;;;;;;;;5018559;28;20236;-81
2023/02/23 07:18:30;;;;;;;1.10;1.10;;;;;;;;;;5007580;28;20467;-83
2023/02/23 07:21:05;;;;;;;1.10;1.10;;;;;;;;;;5004806;28;20231;-81
2023/02/23 07:23:32;;;;;;;0.30;0.30;;;;;;;;;;5004397;28;20231;-83
2023/02/23 07:26:02;;;;;;;0.40;0.40;;;;;;;;;;5006112;28;20488;-83
2023/02/23 07:28:30;;;;;;;1.13;1.13;;;;;;;;;;5010236;28;20752;-80
2023/02/23 07:30:58;;;;;;;1.38;1.38;;;;;;;;;;5005846;28;20217;-81
2023/02/23 07:33:27;;;;;;;0.75;0.75;;;;;;;;;;5004239;28;20224;-80
2023/02/23 07:35:55;;;;;;;0.73;0.73;;;;;;;;;;5005398;28;20246;-81
2023/02/23 07:38:22;;;;;;;1.85;1.75;;;;;;;;;;5003454;28;20240;-82
2023/02/23 07:40:50;;;;;;;1.00;1.00;;;;;;;;;;5005410;28;20225;-84
2023/02/23 07:43:21;;;;;;;0.85;0.85;;;;;;;;;;5009504;28;20252;-81
2023/02/23 07:45:49;;;;;;;1.95;1.85;;;;;;;;;;5008160;28;20275;-81
2023/02/23 07:48:27;;;;;;;0.35;0.35;;;;;;;;;;5008658;28;20252;-82
2023/02/23 07:50:59;;;;;;;0.50;0.50;;;;;;;;;;5007978;28;20224;-80
2023/02/23 07:53:27;;;;;;;2.10;2.00;;;;;;;;;;5005949;28;20236;-82
2023/02/23 07:55:58;;;;;;;0.65;0.65;;;;;;;;;;5006340;28;20289;-80
2023/02/23 07:58:29;;;;;;;1.23;1.23;;;;;;;;;;5025701;28;20223;-80
2023/02/23 08:00:57;;;;;;;1.02;1.02;;;;;;;;;;5025151;28;20223;-79
2023/02/23 08:03:31;;;;;;;0.80;0.80;;;;;;;;;;5027297;28;20224;-79
2023/02/23 08:06:25;;;;;;;1.77;1.67;;;;;;;;;;5028535;28;20580;-79
2023/02/23 08:08:53;;;;;;;1.75;1.65;;;;;;;;;;5026126;28;20247;-80
2023/02/23 08:11:20;;;;;;;1.17;1.17;;;;;;;;;;5027316;28;20247;-81
2023/02/23 08:13:49;;;;;;;1.77;1.67;;;;;;;;;;5026557;28;20247;-80
2023/02/23 08:16:18;;;;;;;1.20;1.20;;;;;;;;;;5027399;28;20250;-81
2023/02/23 08:18:51;;;;;;;1.25;1.25;;;;;;;;;;5025392;28;20291;-80
2023/02/23 08:21:19;;;;;;;0.45;0.45;;;;;;;;;;5025391;28;20284;-81
2023/02/23 08:23:50;;;;;;;0.32;0.32;;;;;;;;;;5023072;28;20244;-82
2023/02/23 08:26:22;;;;;;;3.72;3.45;;;;;;;;;;5026130;28;20240;-81
2023/02/23 08:28:52;;;;;;;1.35;1.30;;;;;;;;;;5003914;28;20251;-81
2023/02/23 08:31:22;;;;;;;2.28;2.17;;;;;;;;;;5008332;28;20247;-82
2023/02/23 08:33:50;;;;;;;1.75;1.65;;;;;;;;;;5004969;28;20216;-82
2023/02/23 08:36:19;;;;;;;1.05;1.05;;;;;;;;;;5007329;28;20248;-81
2023/02/23 08:38:47;;;;;;;1.83;1.73;;;;;;;;;;5006669;28;20239;-82
2023/02/23 08:41:37;;;;;;;1.25;1.23;;;;;;;;;;5025330;28;20239;-82
2023/02/23 08:44:11;;;;;;;1.58;1.48;;;;;;;;;;5017944;28;20323;-82
2023/02/23 08:46:39;;;;;;;2.08;1.98;;;;;;;;;;5018734;28;20247;-83
2023/02/23 08:49:10;;;;;;;2.95;2.75;;;;;;;;;;5023703;28;20259;-80
2023/02/23 08:51:40;;;;;;;1.33;1.27;;;;;;;;;;5024361;28;20310;-78
2023/02/23 08:54:13;;;;;;;1.25;1.25;;;;;;;;;;5014088;28;20224;-79
2023/02/23 08:56:41;;;;;;;1.60;1.50;;;;;;;;;;5021951;28;20295;-79
2023/02/23 08:59:16;;;;;;;2.08;1.98;;;;;;;;;;5022948;28;20263;-81
2023/02/23 09:01:44;;;;;;;3.15;2.95;;;;;;;;;;5024254;28;20337;-83
2023/02/23 09:04:12;;;;;;;0.90;0.90;;;;;;;;;;5021709;28;20220;-81
2023/02/23 09:06:41;;;;;;;1.65;1.55;;;;;;;;;;5012537;28;20224;-81
2023/02/23 09:09:10;;;;;;;0.80;0.80;;;;;;;;;;5022172;28;20226;-79
2023/02/23 09:11:37;;;;;;;0.80;0.80;;;;;;;;;;5005889;28;20593;-82
2023/02/23 09:14:07;;;;;;;0.90;0.90;;;;;;;;;;5022109;28;20300;-80
2023/02/23 09:16:42;;;;;;;0.93;0.93;;;;;;;;;;5025088;28;20255;-79
2023/02/23 09:19:16;;;;;;;3.08;2.88;;;;;;;;;;5035236;28;20250;-79
2023/02/23 09:22:00;;;;;;;1.63;1.52;;;;;;;;;;5032663;28;20295;-80
2023/02/23 09:24:33;;;;;;;1.33;1.23;;;;;;;;;;5033932;28;20217;-81
2023/02/23 09:27:02;;;;;;;2.20;2.10;;;;;;;;;;5029067;28;20220;-79
2023/02/23 09:29:36;;;;;;;0.80;0.80;;;;;;;;;;5034241;28;20255;-80
2023/02/23 09:35:18;;;;;;;2.00;1.90;;;;;;;;;;5033646;28;20205;-82
2023/02/23 09:37:51;;;;;;;1.65;1.55;;;;;;;;;;5023427;28;20688;-78
2023/02/23 09:40:26;;;;;;;1.70;1.60;;;;;;;;;;5023526;28;20221;-79
2023/02/23 09:42:59;;;;;;;2.45;2.25;;;;;;;;;;5027159;28;20244;-78
2023/02/23 09:45:39;;;;;;;1.73;1.63;;;;;;;;;;5033017;28;20286;-80
2023/02/23 09:48:25;;;;;;;0.85;0.85;;;;;;;;;;5032518;28;20243;-81
2023/02/23 09:50:59;;;;;;;1.35;1.30;;;;;;;;;;5031069;28;20613;-81
2023/02/23 09:53:31;;;;;;;2.08;1.98;;;;;;;;;;5021617;28;20227;-79
2023/02/23 09:56:07;;;;;;;0.40;0.40;;;;;;;;;;5022284;28;20247;-80
2023/02/23 09:58:39;;;;;;;2.20;2.10;;;;;;;;;;5024211;28;20227;-79
2023/02/23 10:01:28;;;;;;;1.65;1.55;;;;;;;;;;5034136;28;20230;-81
2023/02/23 10:04:02;;;;;;;1.65;1.55;;;;;;;;;;5033897;28;20227;-78
2023/02/23 10:06:39;;;;;;;3.70;3.40;;;;;;;;;;5029180;28;20296;-83
2023/02/23 10:09:13;;;;;;;1.75;1.65;;;;;;;;;;5031533;28;20472;-79
2023/02/23 10:12:01;;;;;;;1.60;1.50;;;;;;;;;;5025150;28;20484;-81
2023/02/23 10:14:35;;;;;;;1.83;1.73;;;;;;;;;;5025151;28;20271;-81
2023/02/23 10:17:13;;;;;;;1.45;1.40;;;;;;;;;;5017626;28;20241;-78
2023/02/23 10:19:46;;;;;;;1.95;1.85;;;;;;;;;;5023468;28;20224;-79
2023/02/23 10:22:21;;;;;;;2.15;2.05;;;;;;;;;;5013094;28;20265;-81
2023/02/23 10:24:53;;;;;;;2.17;2.08;;;;;;;;;;5023343;28;20542;-79
2023/02/23 10:27:28;;;;;;;2.22;2.13;;;;;;;;;;5025962;28;20223;-81
2023/02/23 10:29:57;;;;;;;1.85;1.75;;;;;;;;;;5023036;28;20227;-82
2023/02/23 10:32:34;;;;;;;0.90;0.90;;;;;;;;;;5022162;28;20552;-82
2023/02/23 10:35:18;;;;;;;2.22;2.13;;;;;;;;;;5023520;28;20228;-80
2023/02/23 10:37:48;;;;;;;2.15;2.05;;;;;;;;;;5022609;28;20240;-82
2023/02/23 10:40:17;;;;;;;1.58;1.48;;;;;;;;;;5023423;28;20235;-80
2023/02/23 10:42:45;;;;;;;1.67;1.58;;;;;;;;;;5023465;28;20677;-79
2023/02/23 10:45:58;;;;;;;0.70;0.70;;;;;;;;;;5026405;28;20229;-81
2023/02/23 10:48:35;;;;;;;2.63;2.47;;;;;;;;;;5025424;28;20241;-79
2023/02/23 10:51:11;;;;;;;1.83;1.73;;;;;;;;;;5021877;28;20221;-79
2023/02/23 10:56:36;;;;;;;3.13;2.92;;;;;;;;;;5021940;28;20267;-80
2023/02/23 10:59:04;;;;;;;2.15;2.05;;;;;;;;;;5023923;28;20264;-82
2023/02/23 11:01:41;;;;;;;3.78;3.58;;;;;;;;;;5026376;28;20294;-83
2023/02/23 11:04:26;;;;;;;1.10;1.08;;;;;;;;;;5027471;28;20230;-81
2023/02/23 11:07:09;;;;;;;3.28;3.08;;;;;;;;;;5025145;28;20216;-79
2023/02/23 11:09:39;;;;;;;3.25;3.05;;;;;;;;;;5027328;28;20232;-81
2023/02/23 11:12:21;;;;;;;3.17;2.97;;;;;;;;;;5025219;28;20227;-82
2023/02/23 11:14:50;;;;;;;2.97;2.78;;;;;;;;;;5024208;28;20307;-80
2023/02/23 11:17:25;;;;;;;4.32;4.03;;;;;;;;;;5032360;28;20295;-82
2023/02/23 11:20:00;;;;;;;1.90;1.80;;;;;;;;;;5026038;28;20275;-82
2023/02/23 11:22:35;;;;;;;3.55;3.33;;;;;;;;;;5024934;28;20212;-81
2023/02/23 11:25:16;;;;;;;2.25;2.15;;;;;;;;;;5026476;28;20229;-81
2023/02/23 11:27:50;;;;;;;1.85;1.75;;;;;;;;;;5016984;28;20216;-79
2023/02/23 11:30:20;;;;;;;2.88;2.67;;;;;;;;;;5011314;28;20489;-79
2023/02/23 11:32:51;;;;;;;4.43;4.13;;;;;;;;;;5017581;28;20223;-79
2023/02/23 11:35:27;;;;;;;1.85;1.75;;;;;;;;;;5024312;28;20700;-80
2023/02/23 11:37:56;;;;;;;4.13;3.83;;;;;;;;;;5030898;28;20626;-81
2023/02/23 11:40:33;;;;;;;2.10;2.00;;;;;;;;;;5029970;28;20239;-83
2023/02/23 11:43:07;;;;;;;2.47;2.33;;;;;;;;;;5030741;28;20668;-80
2023/02/23 11:45:40;;;;;;;0.55;0.55;;;;;;;;;;5028561;28;20585;-79
2023/02/23 11:48:07;;;;;;;1.15;1.10;;;;;;;;;;5030304;28;20295;-80
2023/02/23 11:50:37;;;;;;;2.92;2.72;;;;;;;;;;5029013;28;20208;-80
2023/02/23 11:53:07;;;;;;;2.00;1.90;;;;;;;;;;5031747;28;20226;-78
2023/02/23 11:55:37;;;;;;;1.40;1.30;;;;;;;;;;5028342;28;20232;-80
2023/02/23 11:58:09;;;;;;;2.08;1.98;;;;;;;;;;5040323;28;20285;-80
2023/02/23 12:00:37;;;;;;;1.15;1.15;;;;;;;;;;5020991;28;20229;-81
2023/02/23 12:03:09;;;;;;;2.70;2.50;;;;;;;;;;5007656;28;20229;-80
2023/02/23 12:05:38;;;;;;;3.33;3.13;;;;;;;;;;5021156;28;20220;-82
2023/02/23 12:08:20;;;;;;;5.22;4.90;;;;;;;;;;5012893;28;20226;-82
2023/02/23 12:10:52;;;;;;;2.83;2.67;;;;;;;;;;5025155;28;20310;-83
2023/02/23 12:13:25;;;;;;;2.95;2.75;;;;;;;;;;5027821;28;20238;-81
2023/02/23 12:15:59;;;;;;;3.85;3.60;;;;;;;;;;5030593;28;20271;-80
2023/02/23 12:18:33;;;;;;;0.73;0.73;;;;;;;;;;5028182;28;20226;-80
2023/02/23 12:21:11;;;;;;;1.88;1.77;;;;;;;;;;5023728;28;20291;-80
2023/02/23 12:23:53;;;;;;;3.97;3.70;;;;;;;;;;5015261;28;20221;-82
2023/02/23 12:26:26;;;;;;;4.60;4.30;;;;;;;;;;5025713;28;20220;-82
2023/02/23 12:29:02;;;;;;;1.58;1.48;;;;;;;;;;5022464;28;20220;-80
2023/02/23 12:31:49;;;;;;;2.13;2.03;;;;;;;;;;5008723;28;20222;-82
2023/02/23 12:34:21;;;;;;;2.35;2.25;;;;;;;;;;5019512;28;20266;-81
2023/02/23 12:36:54;;;;;;;1.65;1.55;;;;;;;;;;5029310;28;20236;-80
2023/02/23 12:39:48;;;;;;;2.13;1.98;;;;;;;;;;5022555;28;20224;-81
2023/02/23 12:42:41;;;;;;;3.60;3.40;;;;;;;;;;5017660;28;20222;-81
2023/02/23 12:45:15;;;;;;;1.00;1.00;;;;;;;;;;5019615;28;20216;-81
2023/02/23 12:47:46;;;;;;;1.70;1.60;;;;;;;;;;5022352;28;20216;-82
2023/02/23 12:50:17;;;;;;;2.67;2.50;;;;;;;;;;5021139;28;20289;-81
2023/02/23 12:52:56;;;;;;;3.58;3.38;;;;;;;;;;5022648;28;20239;-81
2023/02/23 12:55:31;;;;;;;2.40;2.28;;;;;;;;;;5027077;28;20317;-83
2023/02/23 12:58:04;;;;;;;2.33;2.20;;;;;;;;;;5028065;28;20660;-81
2023/02/23 13:04:03;;;;;;;2.53;2.42;;;;;;;;;;5011851;28;20622;-82
2023/02/23 13:06:41;;;;;;;4.13;3.85;;;;;;;;;;5023095;28;20257;-80
2023/02/23 13:09:30;;;;;;;1.88;1.77;;;;;;;;;;5017055;28;20220;-81
2023/02/23 13:12:07;;;;;;;1.70;1.60;;;;;;;;;;5018160;28;20220;-82
2023/02/23 13:14:43;;;;;;;2.53;2.42;;;;;;;;;;5020288;28;20220;-81
2023/02/23 13:17:20;;;;;;;0.52;0.52;;;;;;;;;;5020380;28;20689;-81
2023/02/23 13:19:51;;;;;;;4.78;4.47;;;;;;;;;;5019846;28;20356;-78
2023/02/23 13:22:24;;;;;;;1.95;1.85;;;;;;;;;;5018999;28;20287;-81
2023/02/23 13:24:54;;;;;;;3.22;3.03;;;;;;;;;;5028923;28;20224;-82
2023/02/23 13:27:29;;;;;;;3.10;2.90;;;;;;;;;;5023875;28;20283;-81
2023/02/23 13:29:58;;;;;;;1.35;1.33;;;;;;;;;;5014121;28;20257;-82
2023/02/23 13:32:31;;;;;;;2.65;2.45;;;;;;;;;;5022092;28;20234;-80
2023/02/23 13:35:05;;;;;;;1.95;1.85;;;;;;;;;;5027208;28;20287;-79
2023/02/23 13:37:37;;;;;;;2.33;2.20;;;;;;;;;;5026851;28;20295;-81
2023/02/23 13:40:27;;;;;;;1.00;1.00;;;;;;;;;;5028653;28;20223;-78
2023/02/23 13:43:06;;;;;;;2.42;2.33;;;;;;;;;;5023772;28;20219;-79
2023/02/23 13:46:02;;;;;;;0.90;0.90;;;;;;;;;;5029773;28;20215;-79
2023/02/23 13:48:44;;;;;;;0.73;0.73;;;;;;;;;;5032954;28;20315;-79
2023/02/23 13:51:15;;;;;;;1.85;1.75;;;;;;;;;;5027214;28;20238;-81
2023/02/23 13:53:59;;;;;;;1.85;1.75;;;;;;;;;;5026484;28;20250;-81
2023/02/23 13:56:46;;;;;;;1.15;1.15;;;;;;;;;;5018037;28;20215;-81
2023/02/23 13:59:19;;;;;;;1.95;1.85;;;;;;;;;;5028245;28;20234;-81
2023/02/23 14:02:11;;;;;;;2.33;2.22;;;;;;;;;;5029073;28;20230;-81
2023/02/23 14:07:54;;;;;;;1.58;1.48;;;;;;;;;;5007356;28;20220;-83
2023/02/23 14:10:25;;;;;;;3.97;3.75;;;;;;;;;;5019145;28;20223;-81
2023/02/23 14:13:26;;;;;;;4.10;3.80;;;;;;;;;;5029305;28;20233;-79
2023/02/23 14:16:15;;;;;;;2.30;2.20;;;;;;;;;;5021494;28;20235;-80
2023/02/23 14:19:19;;;;;;;2.97;2.78;;;;;;;;;;5008061;28;20674;-81
2023/02/23 14:22:05;;;;;;;4.47;4.18;;;;;;;;;;5018160;28;20291;-82
2023/02/23 14:27:54;;;;;;;3.10;2.90;;;;;;;;;;5008770;28;20216;-80
2023/02/23 14:30:51;;;;;;;2.92;2.72;;;;;;;;;;5026721;28;20306;-79
2023/02/23 14:33:57;;;;;;;1.75;1.65;;;;;;;;;;5022386;28;20244;-83
2023/02/23 14:43:26;;;;;;;3.15;2.95;;;;;;;;;;5024558;28;20229;-82
2023/02/23 14:46:21;;;;;;;3.95;3.75;;;;;;;;;;5031651;28;20254;-79
2023/02/23 14:49:01;;;;;;;2.72;2.58;;;;;;;;;;5021831;28;20264;-81
2023/02/23 14:51:34;;;;;;;5.20;4.85;;;;;;;;;;5018710;28;20233;-80
2023/02/23 14:54:14;;;;;;;2.10;2.00;;;;;;;;;;5024682;28;20631;-82
2023/02/23 14:56:49;;;;;;;2.80;2.60;;;;;;;;;;5026635;28;20246;-82
2023/02/23 14:59:21;;;;;;;2.45;2.35;;;;;;;;;;5019615;28;20226;-82
2023/02/23 15:01:52;;;;;;;4.30;4.00;;;;;;;;;;5026436;28;20282;-83
2023/02/23 15:04:22;;;;;;;1.92;1.83;;;;;;;;;;5021719;28;20251;-82
2023/02/23 15:06:50;;;;;;;2.47;2.38;;;;;;;;;;5021602;28;20200;-84
2023/02/23 15:09:21;;;;;;;3.13;2.92;;;;;;;;;;5025588;28;20232;-82
2023/02/23 15:12:22;;;;;;;2.50;2.40;;;;;;;;;;5027864;28;20229;-84
2023/02/23 15:15:18;;;;;;;1.80;1.70;;;;;;;;;;5023666;28;20205;-81
2023/02/23 15:18:02;;;;;;;2.60;2.45;;;;;;;;;;5023349;28;20245;-80
2023/02/23 15:20:32;;;;;;;2.25;2.15;;;;;;;;;;5021574;28;20246;-82
2023/02/23 15:23:14;;;;;;;3.35;3.15;;;;;;;;;;5018105;28;20209;-81
2023/02/23 15:25:49;;;;;;;1.20;1.20;;;;;;;;;;5015128;28;20275;-81
2023/02/23 15:28:31;;;;;;;2.83;2.72;;;;;;;;;;5019517;28;20226;-79
2023/02/23 15:31:30;;;;;;;1.20;1.20;;;;;;;;;;5025090;28;20223;-81
2023/02/23 15:34:00;;;;;;;2.92;2.75;;;;;;;;;;5026828;28;20232;-79
2023/02/23 15:36:33;;;;;;;2.30;2.20;;;;;;;;;;5018960;28;20216;-79
2023/02/23 15:39:10;;;;;;;1.70;1.60;;;;;;;;;;5020723;28;20249;-79
2023/02/23 15:41:47;;;;;;;2.05;1.95;;;;;;;;;;5025110;28;20291;-82
2023/02/23 15:44:26;;;;;;;2.70;2.58;;;;;;;;;;5025157;28;20659;-80
2023/02/23 15:46:57;;;;;;;1.55;1.45;;;;;;;;;;5026001;28;20234;-79
2023/02/23 15:49:29;;;;;;;3.30;3.10;;;;;;;;;;5014806;28;20217;-79
2023/02/23 15:52:00;;;;;;;1.17;1.17;;;;;;;;;;5023111;28;20279;-78
2023/02/23 15:54:29;;;;;;;4.15;3.92;;;;;;;;;;5018623;28;20263;-81
2023/02/23 15:56:59;;;;;;;2.15;2.05;;;;;;;;;;5015557;28;20601;-81
2023/02/23 15:59:33;;;;;;;3.53;3.33;;;;;;;;;;5006847;28;20232;-80
2023/02/23 16:02:02;;;;;;;3.45;3.25;;;;;;;;;;5023531;28;20292;-80
2023/02/23 16:04:35;;;;;;;2.40;2.30;;;;;;;;;;5014937;28;20263;-82
2023/02/23 16:07:11;;;;;;;1.65;1.58;;;;;;;;;;5022375;28;20247;-81
2023/02/23 16:09:39;;;;;;;2.28;2.17;;;;;;;;;;5024066;28;20234;-79
2023/02/23 16:12:11;;;;;;;4.22;3.95;;;;;;;;;;5015400;28;20219;-79
2023/02/23 16:14:44;;;;;;;2.42;2.33;;;;;;;;;;5024299;28;20225;-80
2023/02/23 16:17:20;;;;;;;1.40;1.38;;;;;;;;;;5023669;28;20232;-80
2023/02/23 16:19:50;;;;;;;1.73;1.63;;;;;;;;;;5022611;28;20236;-81
2023/02/23 16:22:23;;;;;;;1.15;1.15;;;;;;;;;;5020356;28;20228;-80
2023/02/23 16:24:59;;;;;;;1.02;1.02;;;;;;;;;;5014069;28;20235;-81
2023/02/23 16:27:27;;;;;;;1.77;1.67;;;;;;;;;;5019738;28;20237;-79
2023/02/23 16:30:00;;;;;;;2.45;2.35;;;;;;;;;;5017839;28;20228;-82
2023/02/23 16:32:35;;;;;;;1.10;1.10;;;;;;;;;;5017455;28;20217;-79
2023/02/23 16:35:09;;;;;;;2.97;2.83;;;;;;;;;;5013717;28;20227;-81
2023/02/23 16:37:50;;;;;;;1.65;1.55;;;;;;;;;;5031126;28;20234;-79
2023/02/23 16:40:18;;;;;;;3.47;3.20;;;;;;;;;;5030337;28;20236;-80
2023/02/23 16:42:46;;;;;;;0.98;0.98;;;;;;;;;;5030715;28;20222;-81
2023/02/23 16:45:16;;;;;;;0.68;0.68;;;;;;;;;;5026709;28;20228;-81
2023/02/23 16:47:47;;;;;;;1.85;1.75;;;;;;;;;;5029267;28;20246;-81
2023/02/23 16:50:17;;;;;;;0.75;0.75;;;;;;;;;;5027127;28;20232;-80
2023/02/23 16:52:46;;;;;;;1.08;1.08;;;;;;;;;;5029081;28;20279;-80
2023/02/23 16:55:17;;;;;;;1.95;1.83;;;;;;;;;;5028518;28;20253;-81
2023/02/23 16:57:50;;;;;;;2.28;2.17;;;;;;;;;;5026311;28;20228;-80
2023/02/23 17:00:21;;;;;;;2.33;2.22;;;;;;;;;;5026158;28;20222;-79